Terminal Aerodrome Forecast
Issued by NWS Shreveport, LA

Home | Current Version | Previous Version | Text Only | Print | Product List | Glossary On
Versions: 1 2 3 4 5 6 7 8 9 10 11 12 13 14
000
FTUS44 KSHV 171700
TAFLFK
TAF
KLFK 171722Z 1718/1818 08006KT P6SM SCT120
     FM172000 07007KT P6SM SCT040 BKN080 BKN250
     FM180000 VRB03KT P6SM FEW040 SCT100 BKN250
     FM181000 01005KT 4SM BR OVC020
     FM181500 02007KT P6SM SKC=

USA.gov is the U.S. government's official web portal to all federal, state and local government web resources and services.